Terminal Aerodrome Forecast
Issued by NWS Pueblo, CO

Home | Current Version | Previous Version | Text Only | Print | Product List | Glossary On
Versions: 1 2 3 4 5 6 7 8 9 10 11 12 13 14 15 16 17 18 19 20 21 22 23 24 25 26 27 28 29
000
FTUS45 KPUB 222007 AAB
TAFALS
TAF AMD
KALS 222007Z 2220/2318 02006KT P6SM -SN SCT018 BKN040 OVC130
      TEMPO 2220/2223 2SM -SN BR FEW006 BKN018
     FM222300 32010KT P6SM -SHSN SCT030 BKN060
     FM230100 34008KT 5SM BR VCSH OVC030
     FM230700 VRB06KT P6SM SCT030 BKN100
     FM231600 01010KT P6SM FEW070 SCT150=

USA.gov is the U.S. government's official web portal to all federal, state and local government web resources and services.